LIMP

Details ICAO LIMP (PMF)
Name PARMA
Region Italy
Timezone Europe/Rome (UTC+2.0)
Plans Departing 143
Arriving 77
Stats Elevation 161 ft / 49 m (AMSL)
Location 44.826774° 10.297108°
Runways 1
Magnetic Variation 2.764° E
Sunrise 2018-05-20 03:46:44 UTC / 2018-05-20 05:46:44 Local
Sunset 2018-05-20 18:46:46 UTC / 2018-05-20 20:46:46 Local
Advertisement - Login to hide

Runways

ID Width Length Bearing (true) Bearing (mag) Surface Threshold Offset Overrun Length
02 148 ft / 45 m 6,966 ft / 2,123 m 17.20° 14.44° Asphalt 702 ft / 214 m 0 ft / 0 m
20 148 ft / 45 m 6,966 ft / 2,123 m 197.20° 194.44° Asphalt 597 ft / 182 m 0 ft / 0 m

Approach Navaids

Runway Type Ident Frequency Range Bearing (true) Bearing (mag) Slope Elevation
20 Localiser IPR 110.50 MHz 18 nm / 33 km 197.37° 194.61° - 163 ft / 50 m (AMSL)
20 Glidescope IPR 110.50 MHz 10 nm / 19 km 197.20° 194.43° 3.00° 145 ft / 44 m (AMSL)
20 DME IPR 110.50 MHz 18 nm / 33 km - - - 163 ft / 50 m (AMSL)

Map

Weather


0- 5 10 15 20 25 30 35+ Temperature / ° C

Clouds and Precipitation
Forecast for 2018-05-20 18:00 UTC. Updated an hour ago

Ground ~20,000 ft ~40,000 ft Winds

METAR

LIMP 201550Z 08008KT 9999 FEW030 24/13 Q1014

TAF

TAF LIMP 201100Z 2012/2112 VRB05KT 9999 SCT050

Frequencies

Tower 118.45 MHz TWR
Approach 126.55 MHz APP
Warning: Do not use this data for real-world aviation or navigation. No guarantee of current accuracy is given.